createdAt,value
2018-12-03T00:01:33.319Z,10.87
2018-12-03T00:04:21.039Z,10.88
2018-12-03T00:06:49.655Z,10.88
2018-12-03T00:09:18.223Z,10.87
2018-12-03T00:11:46.906Z,10.90
2018-12-03T00:14:15.343Z,10.93
2018-12-03T00:16:44.331Z,10.92
2018-12-03T00:19:12.962Z,10.96
2018-12-03T00:21:42.295Z,10.93
2018-12-03T00:24:10.738Z,10.96
2018-12-03T00:26:39.628Z,10.99
2018-12-03T00:29:08.104Z,10.98
2018-12-03T00:31:36.539Z,10.98
2018-12-03T00:34:05.034Z,10.96
2018-12-03T00:36:33.508Z,10.99
2018-12-03T00:39:02.051Z,11.01
2018-12-03T00:41:30.806Z,10.99
2018-12-03T00:43:59.459Z,10.98
2018-12-03T00:46:27.967Z,11.02
2018-12-03T00:48:56.427Z,11.01
2018-12-03T00:51:24.919Z,11.05
2018-12-03T00:53:53.451Z,11.00
2018-12-03T00:56:21.908Z,10.99
2018-12-03T00:58:50.365Z,10.98
2018-12-03T01:01:18.856Z,11.00
2018-12-03T01:03:47.375Z,11.03
2018-12-03T01:06:15.819Z,11.08
2018-12-03T01:08:44.340Z,11.13
2018-12-03T01:11:12.815Z,11.13
2018-12-03T01:13:41.315Z,11.14
2018-12-03T01:16:09.786Z,11.18
2018-12-03T01:18:38.195Z,11.08
2018-12-03T01:21:06.695Z,11.16
2018-12-03T01:23:35.187Z,11.16
2018-12-03T01:26:03.691Z,11.14
2018-12-03T01:28:32.131Z,11.18
2018-12-03T01:31:00.535Z,11.16
2018-12-03T01:33:29.056Z,11.12
2018-12-03T01:35:58.270Z,11.17
2018-12-03T01:38:26.671Z,11.19
2018-12-03T01:40:55.848Z,11.19
2018-12-03T01:43:24.536Z,11.18
2018-12-03T01:45:53.194Z,11.19
2018-12-03T01:48:21.685Z,11.18
2018-12-03T01:50:50.105Z,11.19
2018-12-03T01:53:19.023Z,11.23
2018-12-03T01:55:47.542Z,11.22
2018-12-03T01:58:16.087Z,11.24
2018-12-03T02:00:44.571Z,11.17
2018-12-03T02:03:13.440Z,11.22
2018-12-03T02:05:42.795Z,11.22
2018-12-03T02:08:11.279Z,11.29
2018-12-03T02:10:40.015Z,11.29
2018-12-03T02:13:08.499Z,11.33
2018-12-03T02:15:36.999Z,11.34
2018-12-03T02:18:06.308Z,11.34
2018-12-03T02:20:34.816Z,11.35
2018-12-03T02:23:03.300Z,11.37
2018-12-03T02:25:31.743Z,11.40
2018-12-03T02:28:00.215Z,11.41
2018-12-03T02:30:28.664Z,11.42
2018-12-03T02:32:57.162Z,11.40
2018-12-03T02:35:25.878Z,11.44
2018-12-03T02:37:54.264Z,11.53
2018-12-03T02:40:22.715Z,11.50
2018-12-03T02:42:51.143Z,11.51
2018-12-03T02:45:19.583Z,11.55
2018-12-03T02:47:48.136Z,11.52
2018-12-03T02:50:16.867Z,11.54
2018-12-03T02:52:45.284Z,11.56
2018-12-03T02:55:14.479Z,11.57
2018-12-03T02:57:43.024Z,11.58
2018-12-03T03:00:13.121Z,11.60
2018-12-03T03:02:42.035Z,11.63
2018-12-03T03:05:11.787Z,11.65
2018-12-03T03:07:40.481Z,11.64
2018-12-03T03:10:11.224Z,11.67
2018-12-03T03:12:39.853Z,11.68
2018-12-03T03:15:11.487Z,11.67
2018-12-03T03:17:40.420Z,11.63
2018-12-03T03:20:11.071Z,11.66
2018-12-03T03:22:39.540Z,11.65
2018-12-03T03:25:09.043Z,11.69
2018-12-03T03:27:38.433Z,11.66
2018-12-03T03:30:10.784Z,11.70
2018-12-03T03:32:39.287Z,11.67
2018-12-03T03:35:09.111Z,11.62
2018-12-03T03:37:37.829Z,11.65
2018-12-03T03:40:12.526Z,11.71
2018-12-03T03:42:41.785Z,11.68
2018-12-03T03:45:16.751Z,11.64
2018-12-03T03:47:46.010Z,11.66
2018-12-03T03:50:14.851Z,11.62
2018-12-03T03:52:43.887Z,11.61
2018-12-03T03:55:12.298Z,11.64
2018-12-03T03:57:40.807Z,11.64
2018-12-03T04:00:10.978Z,11.68
2018-12-03T04:02:40.262Z,11.69
2018-12-03T04:05:10.228Z,11.71
2018-12-03T04:07:38.927Z,11.68
2018-12-03T04:10:09.210Z,11.70
2018-12-03T04:12:37.614Z,11.71
2018-12-03T04:15:08.269Z,11.70
2018-12-03T04:17:37.000Z,11.68
2018-12-03T04:20:09.038Z,11.66
2018-12-03T04:22:37.420Z,11.70
2018-12-03T04:25:07.412Z,11.68
2018-12-03T04:27:36.131Z,11.73
2018-12-03T04:30:07.498Z,11.73
2018-12-03T04:32:35.959Z,11.74
2018-12-03T04:35:04.728Z,11.76
2018-12-03T04:37:33.136Z,11.74
2018-12-03T04:40:01.616Z,11.80
2018-12-03T04:42:30.043Z,11.83
2018-12-03T04:44:58.529Z,11.87
2018-12-03T04:47:26.990Z,11.87
2018-12-03T04:49:55.503Z,11.90
2018-12-03T04:52:24.119Z,11.89
2018-12-03T04:54:52.955Z,11.95
2018-12-03T04:57:22.336Z,11.96
2018-12-03T04:59:50.743Z,11.91
2018-12-03T05:02:19.162Z,11.86
2018-12-03T05:04:47.611Z,11.93
2018-12-03T05:07:16.105Z,11.98
2018-12-03T05:09:44.559Z,11.97
2018-12-03T05:12:13.327Z,12.00
2018-12-03T05:14:41.788Z,12.02
2018-12-03T05:17:11.519Z,12.05
2018-12-03T05:19:40.000Z,12.12
2018-12-03T05:22:08.405Z,12.05
2018-12-03T05:24:36.903Z,12.08
2018-12-03T05:27:06.455Z,12.07
2018-12-03T05:29:34.851Z,12.04
2018-12-03T05:32:03.279Z,12.02
2018-12-03T05:34:31.724Z,12.02
2018-12-03T05:37:00.127Z,12.05
2018-12-03T05:39:28.605Z,12.07
2018-12-03T05:41:57.091Z,12.06
2018-12-03T05:44:26.275Z,12.08
2018-12-03T05:46:55.371Z,12.05
2018-12-03T05:49:23.743Z,12.03
2018-12-03T05:51:52.142Z,12.00
2018-12-03T05:54:20.611Z,12.01
2018-12-03T05:56:49.021Z,11.98
2018-12-03T05:59:17.531Z,11.99
2018-12-03T06:01:45.982Z,11.96
2018-12-03T06:04:14.432Z,11.95
2018-12-03T06:06:42.938Z,11.97
2018-12-03T06:09:11.423Z,11.92
2018-12-03T06:11:39.899Z,11.93
2018-12-03T06:14:09.147Z,11.92
2018-12-03T06:16:37.619Z,11.90
2018-12-03T06:19:06.589Z,11.93
2018-12-03T06:21:35.199Z,11.86
2018-12-03T06:24:03.617Z,11.90
2018-12-03T06:26:31.979Z,11.86
2018-12-03T06:29:00.403Z,11.91
2018-12-03T06:31:28.818Z,11.86
2018-12-03T06:33:57.526Z,11.86
2018-12-03T06:36:25.916Z,11.86
2018-12-03T06:38:54.437Z,11.83
2018-12-03T06:41:22.851Z,11.80
2018-12-03T06:43:51.445Z,11.80
2018-12-03T06:46:19.831Z,11.77
2018-12-03T06:48:48.495Z,11.76
2018-12-03T06:51:17.042Z,11.78
2018-12-03T06:53:45.699Z,11.76
2018-12-03T06:56:14.374Z,11.68
2018-12-03T06:58:42.779Z,11.66
2018-12-03T07:01:11.236Z,11.65
2018-12-03T07:03:39.663Z,11.57
2018-12-03T07:06:08.118Z,11.55
2018-12-03T07:08:36.620Z,11.53
2018-12-03T07:11:05.586Z,11.54
2018-12-03T07:13:34.078Z,11.49
2018-12-03T07:16:02.617Z,11.50
2018-12-03T07:18:31.429Z,11.50
2018-12-03T07:20:59.843Z,11.44
2018-12-03T07:23:28.776Z,11.47
2018-12-03T07:25:57.311Z,11.49
2018-12-03T07:28:25.867Z,11.45
2018-12-03T07:30:54.515Z,11.44
2018-12-03T07:33:23.080Z,11.35
2018-12-03T07:35:52.191Z,11.39
2018-12-03T07:38:20.695Z,11.43
2018-12-03T07:40:49.396Z,11.41
2018-12-03T07:43:18.505Z,11.34
2018-12-03T07:45:47.015Z,11.30
2018-12-03T07:48:15.507Z,11.34
2018-12-03T07:50:44.023Z,11.36
2018-12-03T07:53:12.503Z,11.38
2018-12-03T07:55:40.982Z,11.43
2018-12-03T07:58:12.747Z,11.45
2018-12-03T08:00:46.128Z,11.49
2018-12-03T08:03:14.871Z,11.45
2018-12-03T08:05:43.783Z,11.44
2018-12-03T08:08:12.303Z,11.43
2018-12-03T08:10:42.392Z,11.40
2018-12-03T08:13:12.432Z,11.46
2018-12-03T08:15:40.886Z,11.46
2018-12-03T08:18:12.345Z,11.49
2018-12-03T08:21:11.783Z,11.49
2018-12-03T08:23:54.061Z,11.44
2018-12-03T08:26:22.511Z,11.53
2018-12-03T08:28:51.056Z,11.48
2018-12-03T08:31:19.485Z,11.54
2018-12-03T08:33:48.549Z,11.51
2018-12-03T08:36:17.114Z,11.51
2018-12-03T08:38:45.670Z,11.47
2018-12-03T08:41:14.714Z,11.51
2018-12-03T08:43:43.170Z,11.50
2018-12-03T08:46:12.289Z,11.47
2018-12-03T08:48:42.126Z,11.49
2018-12-03T08:51:11.655Z,11.46
2018-12-03T08:53:40.187Z,11.41
2018-12-03T08:56:08.631Z,11.50
2018-12-03T08:58:37.053Z,11.53
2018-12-03T09:01:11.804Z,11.48
2018-12-03T09:03:41.244Z,11.56
2018-12-03T09:06:12.073Z,11.63
2018-12-03T09:08:40.671Z,11.64
2018-12-03T09:11:11.571Z,11.62
2018-12-03T09:13:40.336Z,11.58
2018-12-03T09:16:08.743Z,11.64
2018-12-03T09:18:39.603Z,11.68
2018-12-03T09:21:14.156Z,11.72
2018-12-03T09:23:43.931Z,11.73
2018-12-03T09:26:13.040Z,11.70
2018-12-03T09:28:41.568Z,11.68
2018-12-03T09:31:10.127Z,11.68
2018-12-03T09:33:38.570Z,11.69
2018-12-03T09:36:07.347Z,11.64
2018-12-03T09:38:47.259Z,11.63
2018-12-03T09:41:15.856Z,11.61
2018-12-03T09:43:44.414Z,11.63
2018-12-03T09:46:12.921Z,11.67
2018-12-03T09:48:42.221Z,11.73
2018-12-03T09:51:10.808Z,11.78
2018-12-03T09:53:39.307Z,11.93
2018-12-03T09:56:07.731Z,12.05
2018-12-03T09:58:37.123Z,11.95
2018-12-03T10:01:10.571Z,11.90
2018-12-03T10:03:44.409Z,11.91
2018-12-03T10:06:15.605Z,11.94
2018-12-03T10:08:44.236Z,11.80
2018-12-03T10:11:12.743Z,11.87
2018-12-03T10:13:41.194Z,11.83
2018-12-03T10:16:09.999Z,11.74
2018-12-03T10:18:38.524Z,11.82
2018-12-03T10:21:07.026Z,11.77
2018-12-03T10:23:35.423Z,11.79
2018-12-03T10:26:08.074Z,11.73
2018-12-03T10:28:36.490Z,11.69
2018-12-03T10:31:05.233Z,11.75
2018-12-03T10:33:34.205Z,11.84
2018-12-03T10:36:05.169Z,11.86
2018-12-03T10:38:36.535Z,11.80
2018-12-03T10:41:09.899Z,11.69
2018-12-03T10:43:39.337Z,11.73
2018-12-03T10:46:09.203Z,11.73
2018-12-03T10:48:37.710Z,11.74
2018-12-03T10:51:11.015Z,11.75
2018-12-03T10:53:39.657Z,11.69
2018-12-03T10:56:08.196Z,11.73
2018-12-03T10:58:38.091Z,11.79
2018-12-03T11:01:13.663Z,11.79
2018-12-03T11:03:47.772Z,11.68
2018-12-03T11:06:17.953Z,11.72
2018-12-03T11:08:46.869Z,11.74
2018-12-03T11:11:15.690Z,11.82
2018-12-03T11:13:44.251Z,11.72
2018-12-03T11:16:28.723Z,11.80
2018-12-03T11:18:57.501Z,11.87
2018-12-03T11:21:26.960Z,11.90
2018-12-03T11:23:55.493Z,11.93
2018-12-03T11:26:30.181Z,11.93
2018-12-03T11:28:58.864Z,11.92
2018-12-03T11:31:30.033Z,11.96
2018-12-03T11:33:59.457Z,11.96
2018-12-03T11:36:39.187Z,11.95
2018-12-03T11:39:15.103Z,12.08
2018-12-03T11:41:43.579Z,11.98
2018-12-03T11:44:12.251Z,12.04
2018-12-03T11:46:40.793Z,12.02
2018-12-03T11:49:09.355Z,11.98
2018-12-03T11:51:37.841Z,11.95
2018-12-03T11:54:07.792Z,12.01
2018-12-03T11:56:36.272Z,11.96
2018-12-03T11:59:04.667Z,12.06
2018-12-03T12:01:33.078Z,12.07
2018-12-03T12:04:01.615Z,12.06
2018-12-03T12:06:30.096Z,12.00
2018-12-03T12:08:58.499Z,12.08
2018-12-03T12:11:27.047Z,12.00
2018-12-03T12:13:56.258Z,12.03
2018-12-03T12:16:24.711Z,12.02
2018-12-03T12:18:53.403Z,12.04
2018-12-03T12:21:21.907Z,12.14
2018-12-03T12:23:50.389Z,12.13
2018-12-03T12:26:18.791Z,12.13
2018-12-03T12:28:47.233Z,12.18
2018-12-03T12:31:15.915Z,12.15
2018-12-03T12:33:44.421Z,12.13
2018-12-03T12:36:12.978Z,12.16
2018-12-03T12:38:41.460Z,12.13
2018-12-03T12:41:09.911Z,11.98
2018-12-03T12:43:38.449Z,11.98
2018-12-03T12:46:10.163Z,11.98
2018-12-03T12:48:38.688Z,11.91
2018-12-03T12:51:07.213Z,11.87
2018-12-03T12:53:35.736Z,11.86
2018-12-03T12:56:04.329Z,11.92
2018-12-03T12:58:33.259Z,11.84
2018-12-03T13:01:01.671Z,11.80
2018-12-03T13:03:30.189Z,11.78
2018-12-03T13:05:58.652Z,11.84
2018-12-03T13:08:27.127Z,11.82
2018-12-03T13:10:55.596Z,11.69
2018-12-03T13:13:24.018Z,11.72
2018-12-03T13:15:52.475Z,11.75
2018-12-03T13:18:20.938Z,11.76
2018-12-03T13:20:49.888Z,11.75
2018-12-03T13:23:18.551Z,11.72
2018-12-03T13:25:47.087Z,11.71
2018-12-03T13:28:16.032Z,11.66
2018-12-03T13:30:44.473Z,11.72
2018-12-03T13:33:13.610Z,11.72
2018-12-03T13:35:42.216Z,11.66
2018-12-03T13:38:10.885Z,11.61
2018-12-03T13:40:40.067Z,11.64
2018-12-03T13:43:08.664Z,11.63
2018-12-03T13:45:37.888Z,11.69
2018-12-03T13:48:06.839Z,11.65
2018-12-03T13:50:35.263Z,11.59
2018-12-03T13:53:03.731Z,11.49
2018-12-03T13:55:32.302Z,11.54
2018-12-03T13:58:01.163Z,11.53
2018-12-03T14:00:29.983Z,11.51
2018-12-03T14:03:04.194Z,11.50
2018-12-03T14:05:35.671Z,11.47
2018-12-03T14:08:26.567Z,11.40
2018-12-03T14:11:08.299Z,11.35
2018-12-03T14:14:52.269Z,11.40
2018-12-03T14:17:29.642Z,11.38
2018-12-03T14:20:00.251Z,11.33
2018-12-03T14:22:33.787Z,11.34
2018-12-03T14:25:02.350Z,11.29
2018-12-03T14:27:30.747Z,11.30
2018-12-03T14:29:59.224Z,11.30
2018-12-03T14:32:27.995Z,11.29
2018-12-03T14:34:57.576Z,11.19
2018-12-03T14:37:26.127Z,11.10
2018-12-03T14:39:54.672Z,11.18
2018-12-03T14:42:23.523Z,11.23
2018-12-03T14:44:52.151Z,11.18
2018-12-03T14:47:20.643Z,11.14
2018-12-03T14:49:49.725Z,11.11
2018-12-03T14:52:18.575Z,11.02
2018-12-03T14:54:47.114Z,11.03
2018-12-03T14:57:16.417Z,11.04
2018-12-03T14:59:44.965Z,11.07
2018-12-03T15:02:13.496Z,11.04
2018-12-03T15:04:42.965Z,11.08
2018-12-03T15:07:11.605Z,10.96
2018-12-03T15:09:40.293Z,10.92
2018-12-03T15:12:08.759Z,10.86
2018-12-03T15:14:38.096Z,10.83
2018-12-03T15:17:06.595Z,10.83
2018-12-03T15:19:35.127Z,10.87
2018-12-03T15:22:03.634Z,10.88
2018-12-03T15:24:34.035Z,10.74
2018-12-03T15:27:02.499Z,10.71
2018-12-03T15:29:31.000Z,10.66
2018-12-03T15:32:00.256Z,10.58
2018-12-03T15:34:28.736Z,10.48
2018-12-03T15:36:57.462Z,10.43
2018-12-03T15:39:26.390Z,10.47
2018-12-03T15:41:54.994Z,10.42
2018-12-03T15:44:24.269Z,10.41
2018-12-03T15:46:52.779Z,10.38
2018-12-03T15:49:21.327Z,10.45
2018-12-03T15:51:49.952Z,10.44
2018-12-03T15:54:18.451Z,10.41
2018-12-03T15:56:46.995Z,10.45
2018-12-03T15:59:15.469Z,10.45
2018-12-03T16:01:43.928Z,10.41
2018-12-03T16:04:12.379Z,10.42
2018-12-03T16:06:41.323Z,10.38
2018-12-03T16:09:11.618Z,10.37
2018-12-03T16:11:40.517Z,10.35
2018-12-03T16:14:09.041Z,10.32
2018-12-03T16:16:37.560Z,10.28
2018-12-03T16:19:06.085Z,10.19
2018-12-03T16:21:34.523Z,10.18
2018-12-03T16:24:02.991Z,10.21
2018-12-03T16:26:32.271Z,10.18
2018-12-03T16:29:02.026Z,10.18
2018-12-03T16:31:30.523Z,10.24
2018-12-03T16:33:59.850Z,10.24
2018-12-03T16:36:28.303Z,10.28
2018-12-03T16:38:56.789Z,10.28
2018-12-03T16:41:25.975Z,10.30
2018-12-03T16:43:54.359Z,10.31
2018-12-03T16:46:23.382Z,10.34
2018-12-03T16:48:52.049Z,10.33
2018-12-03T16:51:20.505Z,10.34
2018-12-03T16:53:49.111Z,10.33
2018-12-03T16:56:17.599Z,10.29
2018-12-03T16:58:46.488Z,10.29
2018-12-03T17:01:14.987Z,10.35
2018-12-03T17:03:43.528Z,10.40
2018-12-03T17:06:11.954Z,10.41
2018-12-03T17:08:40.387Z,10.36
2018-12-03T17:11:09.153Z,10.33
2018-12-03T17:13:37.683Z,10.24
2018-12-03T17:16:06.174Z,10.30
2018-12-03T17:18:34.668Z,10.31
2018-12-03T17:21:09.296Z,10.37
2018-12-03T17:24:16.201Z,10.35
2018-12-03T17:26:45.049Z,10.30
2018-12-03T17:29:13.649Z,10.28
2018-12-03T17:31:42.092Z,10.28
2018-12-03T17:34:10.575Z,10.25
2018-12-03T17:36:39.182Z,10.23
2018-12-03T17:39:08.687Z,10.13
2018-12-03T17:41:37.189Z,10.16
2018-12-03T17:44:06.802Z,10.22
2018-12-03T17:46:35.406Z,10.19
2018-12-03T17:49:03.813Z,10.20
2018-12-03T19:04:54.521Z,9.67
2018-12-03T19:07:22.732Z,9.69
2018-12-03T19:09:51.000Z,9.72
2018-12-03T19:12:19.309Z,9.70
2018-12-03T19:14:47.598Z,9.70
2018-12-03T19:17:15.817Z,9.76
2018-12-03T19:19:43.996Z,9.72
2018-12-03T19:22:12.301Z,9.69
2018-12-03T19:24:40.553Z,9.62
2018-12-03T19:27:08.869Z,9.64
2018-12-03T19:29:38.948Z,9.62
2018-12-03T19:46:28.263Z,9.43
2018-12-03T19:48:56.469Z,9.41
2018-12-03T19:51:24.721Z,9.38
2018-12-03T19:53:54.344Z,9.43
2018-12-03T19:56:22.649Z,9.47
2018-12-03T19:58:52.524Z,9.48
2018-12-03T20:01:20.941Z,9.49
2018-12-03T20:03:49.112Z,9.50
2018-12-03T20:06:17.389Z,9.51
2018-12-03T20:08:45.628Z,9.52
2018-12-03T20:11:13.908Z,9.49
2018-12-03T20:13:42.217Z,9.48
2018-12-03T20:16:10.877Z,9.41
2018-12-03T20:18:39.589Z,9.38
2018-12-03T20:21:11.717Z,9.35
2018-12-03T20:23:46.068Z,9.30
2018-12-03T20:26:24.668Z,9.30
2018-12-03T20:29:35.189Z,9.26
2018-12-03T20:33:17.880Z,9.20
2018-12-03T20:35:53.737Z,9.14
2018-12-03T20:39:02.544Z,9.11
2018-12-03T20:41:34.857Z,9.09
2018-12-03T20:44:11.543Z,9.02
2018-12-03T20:46:47.957Z,8.95
2018-12-03T20:49:57.584Z,8.93
2018-12-03T20:52:28.565Z,8.91
2018-12-03T20:54:59.977Z,8.90
2018-12-03T20:57:28.298Z,8.97
2018-12-03T20:59:56.574Z,8.97
2018-12-03T21:02:25.862Z,8.93
2018-12-03T21:04:54.097Z,8.88
2018-12-03T21:07:22.402Z,8.91
2018-12-03T21:09:50.710Z,8.84
2018-12-03T21:12:18.896Z,8.86
2018-12-03T21:14:47.437Z,8.84
2018-12-03T21:17:15.969Z,8.78
2018-12-03T21:19:46.108Z,8.74
2018-12-03T21:22:14.316Z,8.73
2018-12-03T21:24:42.591Z,8.76
2018-12-03T21:27:11.101Z,8.72
2018-12-03T21:29:39.352Z,8.75
2018-12-03T21:32:07.549Z,8.69
2018-12-03T21:34:35.828Z,8.68
2018-12-03T21:37:04.132Z,8.68
2018-12-03T21:39:32.317Z,8.69
2018-12-03T21:42:00.511Z,8.67
2018-12-03T21:44:28.784Z,8.62
2018-12-03T21:46:57.000Z,8.64
2018-12-03T21:49:25.296Z,8.58
2018-12-03T21:51:53.594Z,8.53
2018-12-03T21:54:21.777Z,8.55
2018-12-03T21:56:49.988Z,8.49
2018-12-03T21:59:18.541Z,8.47
2018-12-03T22:01:46.729Z,8.46
2018-12-03T22:04:14.955Z,8.44
2018-12-03T22:06:43.145Z,8.39
2018-12-03T22:09:11.401Z,8.46
2018-12-03T22:11:39.650Z,8.45
2018-12-03T22:14:07.956Z,8.51
2018-12-03T22:16:36.513Z,8.52
2018-12-03T22:19:04.781Z,8.45
2018-12-03T22:21:33.089Z,8.43
2018-12-03T22:24:01.353Z,8.39
2018-12-03T22:26:29.653Z,8.38
2018-12-03T22:28:57.945Z,8.42
2018-12-03T22:31:26.184Z,8.40
2018-12-03T22:33:54.373Z,8.35
2018-12-03T22:36:22.761Z,8.36
2018-12-03T22:38:50.969Z,8.34
2018-12-03T22:41:19.186Z,8.25
2018-12-03T22:43:47.592Z,8.28
2018-12-03T22:46:15.761Z,8.31
2018-12-03T22:48:44.105Z,8.34
2018-12-03T22:51:12.416Z,8.43
2018-12-03T22:53:40.744Z,8.45
2018-12-03T22:56:09.088Z,8.40
2018-12-03T22:58:37.352Z,8.38
2018-12-03T23:01:08.025Z,8.41
2018-12-03T23:03:36.253Z,8.38
2018-12-03T23:06:04.476Z,8.36
2018-12-03T23:08:32.921Z,8.33
2018-12-03T23:11:01.165Z,8.34
2018-12-03T23:13:30.317Z,8.33
2018-12-03T23:15:58.580Z,8.25
2018-12-03T23:18:26.765Z,8.22
2018-12-03T23:20:54.992Z,8.05
2018-12-03T23:23:23.308Z,8.09
2018-12-03T23:25:53.278Z,8.07
2018-12-03T23:28:21.496Z,8.12
2018-12-03T23:30:49.724Z,8.13
2018-12-03T23:33:17.932Z,8.09
2018-12-03T23:35:46.125Z,8.01
2018-12-03T23:38:14.335Z,8.02
2018-12-03T23:40:42.554Z,8.08
2018-12-03T23:43:10.861Z,8.02
2018-12-03T23:45:39.121Z,7.97
2018-12-03T23:48:07.692Z,7.89
2018-12-03T23:50:35.953Z,7.85
2018-12-03T23:53:04.272Z,7.82
2018-12-03T23:55:32.512Z,7.86
2018-12-03T23:58:00.688Z,7.77
